Etusivu
METAR-TAF:

METAR-TAF

Lentoasemat :

Capo Mele

Andora, Italia

Leveyspiiri: 43-57N, Pituuspiiri: 008-10E, korkeus merenpinnasta: 220 m

Tämänhetkinen sää

Tämä raportti tehtiin 33 minuuttia sitten, kello 05.55 UTC
Tuuli 3 kn pohjoisesta/koillisesta
Lämpötila 18°C
Kosteus 59%
Ilmanpaine 1020 hPa
Näkyvyys 10 km tai enemmän
ei pilviä alle 1500 m:ssä eikä cumulonimbus-pilviä

METAR: LIMU 210555Z 03003KT CAVOK 18/10 Q1020 RMK SKC QUK 1 QUL 1 E VIS MAR 25 KM VIS MIN 9999

Aika: 08:28 (06:28 UTC)


TAF: puuttuu

Säähavainnot ja -ennusteet yli 4000 lentoasemalta (METAR- ja TAF-raportit).

Käytössä olevat sääasemat on merkitty karttaan keltaisilla ja punaisilla pisteillä.

Aseta hiiri pisteen päälle nähdäksesi sääaseman nimen.

Klikkaa sitten nähdäksesi säähavainnot ja -ennusteet.

Kartan vaihtaminen: klikkaa mustalla rastilla varustettuja vihreitä pisteitä, niin voit zoomata sisään; viivalla varustettua vihreää pistettä, niin voit zoomata ulos tai vihreitä nuolia, niin pääset viereisille kartoille.


METAR-TAF: